sensor_id;sensor_type;location;lat;lon;timestamp;P1;durP1;ratioP1;P2;durP2;ratioP2
46230;SDS011;31949;51.404;-0.038;2023-07-16T00:00:33;10.43;;;2.70;;
46230;SDS011;31949;51.404;-0.038;2023-07-16T00:03:00;10.48;;;3.00;;
46230;SDS011;31949;51.404;-0.038;2023-07-16T00:05:28;8.02;;;2.42;;
46230;SDS011;31949;51.404;-0.038;2023-07-16T00:07:55;11.57;;;3.05;;
46230;SDS011;31949;51.404;-0.038;2023-07-16T00:10:23;10.00;;;2.70;;
46230;SDS011;31949;51.404;-0.038;2023-07-16T00:12:50;8.35;;;2.50;;
46230;SDS011;31949;51.404;-0.038;2023-07-16T00:15:17;10.00;;;2.63;;
46230;SDS011;31949;51.404;-0.038;2023-07-16T00:17:45;9.15;;;2.80;;
46230;SDS011;31949;51.404;-0.038;2023-07-16T00:20:12;9.25;;;2.88;;
46230;SDS011;31949;51.404;-0.038;2023-07-16T00:22:41;6.78;;;2.40;;
46230;SDS011;31949;51.404;-0.038;2023-07-16T00:25:08;8.10;;;2.40;;
46230;SDS011;31949;51.404;-0.038;2023-07-16T00:27:35;9.57;;;2.28;;
46230;SDS011;31949;51.404;-0.038;2023-07-16T00:30:03;8.25;;;2.55;;
46230;SDS011;31949;51.404;-0.038;2023-07-16T00:32:31;12.02;;;3.13;;
46230;SDS011;31949;51.404;-0.038;2023-07-16T00:34:58;7.90;;;2.33;;
46230;SDS011;31949;51.404;-0.038;2023-07-16T00:37:25;6.45;;;2.38;;
46230;SDS011;31949;51.404;-0.038;2023-07-16T00:39:53;12.20;;;3.17;;
46230;SDS011;31949;51.404;-0.038;2023-07-16T00:42:22;7.57;;;2.63;;
46230;SDS011;31949;51.404;-0.038;2023-07-16T00:44:50;13.38;;;3.00;;
46230;SDS011;31949;51.404;-0.038;2023-07-16T00:47:20;9.30;;;2.92;;
46230;SDS011;31949;51.404;-0.038;2023-07-16T00:49:49;14.37;;;3.00;;
46230;SDS011;31949;51.404;-0.038;2023-07-16T00:52:18;12.07;;;3.20;;
46230;SDS011;31949;51.404;-0.038;2023-07-16T00:54:49;18.20;;;3.38;;
46230;SDS011;31949;51.404;-0.038;2023-07-16T00:57:16;11.82;;;2.90;;
46230;SDS011;31949;51.404;-0.038;2023-07-16T00:59:46;9.85;;;2.90;;
46230;SDS011;31949;51.404;-0.038;2023-07-16T01:02:13;9.43;;;3.20;;
46230;SDS011;31949;51.404;-0.038;2023-07-16T01:04:40;13.13;;;3.03;;
46230;SDS011;31949;51.404;-0.038;2023-07-16T01:07:08;9.90;;;2.92;;
46230;SDS011;31949;51.404;-0.038;2023-07-16T01:09:41;17.90;;;3.60;;
46230;SDS011;31949;51.404;-0.038;2023-07-16T01:12:09;11.75;;;2.38;;
46230;SDS011;31949;51.404;-0.038;2023-07-16T01:14:38;12.82;;;2.83;;
46230;SDS011;31949;51.404;-0.038;2023-07-16T01:17:06;11.40;;;3.55;;
46230;SDS011;31949;51.404;-0.038;2023-07-16T01:19:34;14.65;;;3.03;;
46230;SDS011;31949;51.404;-0.038;2023-07-16T01:30:46;11.00;;;3.22;;
46230;SDS011;31949;51.404;-0.038;2023-07-16T01:33:14;10.07;;;3.22;;
46230;SDS011;31949;51.404;-0.038;2023-07-16T01:35:43;10.43;;;2.83;;
46230;SDS011;31949;51.404;-0.038;2023-07-16T01:38:13;9.20;;;3.00;;
46230;SDS011;31949;51.404;-0.038;2023-07-16T01:40:45;13.13;;;3.22;;
46230;SDS011;31949;51.404;-0.038;2023-07-16T01:43:12;14.27;;;2.88;;
46230;SDS011;31949;51.404;-0.038;2023-07-16T01:45:39;12.02;;;3.88;;
46230;SDS011;31949;51.404;-0.038;2023-07-16T01:51:03;12.48;;;3.75;;
46230;SDS011;31949;51.404;-0.038;2023-07-16T01:53:31;7.97;;;3.15;;
46230;SDS011;31949;51.404;-0.038;2023-07-16T01:56:02;8.17;;;2.60;;
46230;SDS011;31949;51.404;-0.038;2023-07-16T01:58:30;8.30;;;3.45;;
46230;SDS011;31949;51.404;-0.038;2023-07-16T02:01:02;11.38;;;2.83;;
46230;SDS011;31949;51.404;-0.038;2023-07-16T02:03:30;9.98;;;2.97;;
46230;SDS011;31949;51.404;-0.038;2023-07-16T02:05:58;8.82;;;2.85;;
46230;SDS011;31949;51.404;-0.038;2023-07-16T02:08:25;9.38;;;2.85;;
46230;SDS011;31949;51.404;-0.038;2023-07-16T02:10:52;12.10;;;3.60;;
46230;SDS011;31949;51.404;-0.038;2023-07-16T02:13:20;14.43;;;3.83;;
46230;SDS011;31949;51.404;-0.038;2023-07-16T02:15:47;15.15;;;3.45;;
46230;SDS011;31949;51.404;-0.038;2023-07-16T02:18:14;13.80;;;4.30;;
46230;SDS011;31949;51.404;-0.038;2023-07-16T02:20:43;15.60;;;3.28;;
46230;SDS011;31949;51.404;-0.038;2023-07-16T02:23:10;12.75;;;3.60;;
46230;SDS011;31949;51.404;-0.038;2023-07-16T02:25:38;10.77;;;3.47;;
46230;SDS011;31949;51.404;-0.038;2023-07-16T02:28:05;12.93;;;3.38;;
46230;SDS011;31949;51.404;-0.038;2023-07-16T02:30:32;11.57;;;3.42;;
46230;SDS011;31949;51.404;-0.038;2023-07-16T02:32:59;8.55;;;3.10;;
46230;SDS011;31949;51.404;-0.038;2023-07-16T02:35:27;9.93;;;3.40;;
46230;SDS011;31949;51.404;-0.038;2023-07-16T02:37:54;9.23;;;2.85;;
46230;SDS011;31949;51.404;-0.038;2023-07-16T02:40:21;14.52;;;2.88;;
46230;SDS011;31949;51.404;-0.038;2023-07-16T02:42:49;12.07;;;3.30;;
46230;SDS011;31949;51.404;-0.038;2023-07-16T02:45:18;9.23;;;2.90;;
46230;SDS011;31949;51.404;-0.038;2023-07-16T02:47:45;16.83;;;3.28;;
46230;SDS011;31949;51.404;-0.038;2023-07-16T02:50:15;10.63;;;3.55;;
46230;SDS011;31949;51.404;-0.038;2023-07-16T02:52:42;12.13;;;4.05;;
46230;SDS011;31949;51.404;-0.038;2023-07-16T02:55:10;11.05;;;3.15;;
46230;SDS011;31949;51.404;-0.038;2023-07-16T02:57:37;12.45;;;3.20;;
46230;SDS011;31949;51.404;-0.038;2023-07-16T03:00:06;11.30;;;2.67;;
46230;SDS011;31949;51.404;-0.038;2023-07-16T03:02:36;11.40;;;3.50;;
46230;SDS011;31949;51.404;-0.038;2023-07-16T03:05:04;16.73;;;3.63;;
46230;SDS011;31949;51.404;-0.038;2023-07-16T03:07:33;10.55;;;3.08;;
46230;SDS011;31949;51.404;-0.038;2023-07-16T03:10:04;10.55;;;3.90;;
46230;SDS011;31949;51.404;-0.038;2023-07-16T03:12:31;13.10;;;4.32;;
46230;SDS011;31949;51.404;-0.038;2023-07-16T03:14:58;7.78;;;3.30;;
46230;SDS011;31949;51.404;-0.038;2023-07-16T03:17:26;11.52;;;3.08;;
46230;SDS011;31949;51.404;-0.038;2023-07-16T03:19:54;16.27;;;3.80;;
46230;SDS011;31949;51.404;-0.038;2023-07-16T03:22:21;9.93;;;3.72;;
46230;SDS011;31949;51.404;-0.038;2023-07-16T03:24:49;9.25;;;3.20;;
46230;SDS011;31949;51.404;-0.038;2023-07-16T03:27:16;14.48;;;3.75;;
46230;SDS011;31949;51.404;-0.038;2023-07-16T03:29:50;13.38;;;3.47;;
46230;SDS011;31949;51.404;-0.038;2023-07-16T03:32:20;7.30;;;3.38;;
46230;SDS011;31949;51.404;-0.038;2023-07-16T03:34:47;9.75;;;3.67;;
46230;SDS011;31949;51.404;-0.038;2023-07-16T03:37:16;11.48;;;3.20;;
46230;SDS011;31949;51.404;-0.038;2023-07-16T03:39:46;9.95;;;4.00;;
46230;SDS011;31949;51.404;-0.038;2023-07-16T03:42:13;11.95;;;3.70;;
46230;SDS011;31949;51.404;-0.038;2023-07-16T03:44:41;12.00;;;3.75;;
46230;SDS011;31949;51.404;-0.038;2023-07-16T03:47:09;13.68;;;4.07;;
46230;SDS011;31949;51.404;-0.038;2023-07-16T03:49:40;10.18;;;3.60;;
46230;SDS011;31949;51.404;-0.038;2023-07-16T03:52:07;17.17;;;4.05;;
46230;SDS011;31949;51.404;-0.038;2023-07-16T03:54:35;15.35;;;4.07;;
46230;SDS011;31949;51.404;-0.038;2023-07-16T03:57:04;16.15;;;4.28;;
46230;SDS011;31949;51.404;-0.038;2023-07-16T03:59:32;15.45;;;3.72;;
46230;SDS011;31949;51.404;-0.038;2023-07-16T04:01:59;11.38;;;3.75;;
46230;SDS011;31949;51.404;-0.038;2023-07-16T04:04:26;13.20;;;3.25;;
46230;SDS011;31949;51.404;-0.038;2023-07-16T04:06:54;16.25;;;4.43;;
46230;SDS011;31949;51.404;-0.038;2023-07-16T04:09:23;11.18;;;4.60;;
46230;SDS011;31949;51.404;-0.038;2023-07-16T04:11:52;15.18;;;3.67;;
46230;SDS011;31949;51.404;-0.038;2023-07-16T04:14:22;14.13;;;3.78;;
46230;SDS011;31949;51.404;-0.038;2023-07-16T04:16:49;12.18;;;4.05;;
46230;SDS011;31949;51.404;-0.038;2023-07-16T04:19:17;20.23;;;4.10;;
46230;SDS011;31949;51.404;-0.038;2023-07-16T04:21:45;8.38;;;2.67;;
46230;SDS011;31949;51.404;-0.038;2023-07-16T04:24:12;12.18;;;3.58;;
46230;SDS011;31949;51.404;-0.038;2023-07-16T04:26:39;14.15;;;3.17;;
46230;SDS011;31949;51.404;-0.038;2023-07-16T04:29:06;16.48;;;3.97;;
46230;SDS011;31949;51.404;-0.038;2023-07-16T04:31:34;11.10;;;3.05;;
46230;SDS011;31949;51.404;-0.038;2023-07-16T04:34:02;13.48;;;4.35;;
46230;SDS011;31949;51.404;-0.038;2023-07-16T04:36:29;10.80;;;4.13;;
46230;SDS011;31949;51.404;-0.038;2023-07-16T04:38:57;11.80;;;3.17;;
46230;SDS011;31949;51.404;-0.038;2023-07-16T04:41:24;9.02;;;2.75;;
46230;SDS011;31949;51.404;-0.038;2023-07-16T04:43:51;10.18;;;3.28;;
46230;SDS011;31949;51.404;-0.038;2023-07-16T04:46:18;19.25;;;3.90;;
46230;SDS011;31949;51.404;-0.038;2023-07-16T04:48:46;14.65;;;4.28;;
46230;SDS011;31949;51.404;-0.038;2023-07-16T04:51:13;14.65;;;4.78;;
46230;SDS011;31949;51.404;-0.038;2023-07-16T04:53:40;14.50;;;5.10;;
46230;SDS011;31949;51.404;-0.038;2023-07-16T04:56:14;15.00;;;3.25;;
46230;SDS011;31949;51.404;-0.038;2023-07-16T04:58:43;11.80;;;3.55;;
46230;SDS011;31949;51.404;-0.038;2023-07-16T05:01:10;13.50;;;4.38;;
46230;SDS011;31949;51.404;-0.038;2023-07-16T05:03:37;12.48;;;3.35;;
46230;SDS011;31949;51.404;-0.038;2023-07-16T05:06:05;18.08;;;3.90;;
46230;SDS011;31949;51.404;-0.038;2023-07-16T05:08:32;11.88;;;3.17;;
46230;SDS011;31949;51.404;-0.038;2023-07-16T05:11:00;7.70;;;3.08;;
46230;SDS011;31949;51.404;-0.038;2023-07-16T05:13:28;13.77;;;3.67;;
46230;SDS011;31949;51.404;-0.038;2023-07-16T05:15:55;17.73;;;3.88;;
46230;SDS011;31949;51.404;-0.038;2023-07-16T05:18:23;9.70;;;3.45;;
46230;SDS011;31949;51.404;-0.038;2023-07-16T05:20:50;12.57;;;3.72;;
46230;SDS011;31949;51.404;-0.038;2023-07-16T05:23:18;11.68;;;3.00;;
46230;SDS011;31949;51.404;-0.038;2023-07-16T05:25:48;14.18;;;3.28;;
46230;SDS011;31949;51.404;-0.038;2023-07-16T05:28:17;11.40;;;3.33;;
46230;SDS011;31949;51.404;-0.038;2023-07-16T05:30:45;10.63;;;2.58;;
46230;SDS011;31949;51.404;-0.038;2023-07-16T05:33:12;11.23;;;3.25;;
46230;SDS011;31949;51.404;-0.038;2023-07-16T05:35:40;9.20;;;2.67;;
46230;SDS011;31949;51.404;-0.038;2023-07-16T05:38:07;15.60;;;3.47;;
46230;SDS011;31949;51.404;-0.038;2023-07-16T05:40:35;10.73;;;3.55;;
46230;SDS011;31949;51.404;-0.038;2023-07-16T05:43:02;10.05;;;3.00;;
46230;SDS011;31949;51.404;-0.038;2023-07-16T05:45:30;10.80;;;2.80;;
46230;SDS011;31949;51.404;-0.038;2023-07-16T05:48:03;10.25;;;3.00;;
46230;SDS011;31949;51.404;-0.038;2023-07-16T05:50:31;10.65;;;3.15;;
46230;SDS011;31949;51.404;-0.038;2023-07-16T05:52:58;15.48;;;4.07;;
46230;SDS011;31949;51.404;-0.038;2023-07-16T05:55:28;11.65;;;2.75;;
46230;SDS011;31949;51.404;-0.038;2023-07-16T05:57:56;9.50;;;2.63;;
46230;SDS011;31949;51.404;-0.038;2023-07-16T06:00:23;10.10;;;2.78;;
46230;SDS011;31949;51.404;-0.038;2023-07-16T06:02:50;6.88;;;2.38;;
46230;SDS011;31949;51.404;-0.038;2023-07-16T06:05:18;11.55;;;2.88;;
46230;SDS011;31949;51.404;-0.038;2023-07-16T06:07:46;16.25;;;4.03;;
46230;SDS011;31949;51.404;-0.038;2023-07-16T06:10:13;9.93;;;2.55;;
46230;SDS011;31949;51.404;-0.038;2023-07-16T06:12:43;12.77;;;3.70;;
46230;SDS011;31949;51.404;-0.038;2023-07-16T06:15:13;10.38;;;2.78;;
46230;SDS011;31949;51.404;-0.038;2023-07-16T06:17:40;12.20;;;2.75;;
46230;SDS011;31949;51.404;-0.038;2023-07-16T06:20:11;9.80;;;2.38;;
46230;SDS011;31949;51.404;-0.038;2023-07-16T06:22:38;10.75;;;2.90;;
46230;SDS011;31949;51.404;-0.038;2023-07-16T06:25:05;9.25;;;2.50;;
46230;SDS011;31949;51.404;-0.038;2023-07-16T06:27:33;17.48;;;3.33;;
46230;SDS011;31949;51.404;-0.038;2023-07-16T06:30:01;9.48;;;2.60;;
46230;SDS011;31949;51.404;-0.038;2023-07-16T06:32:29;13.93;;;4.20;;
46230;SDS011;31949;51.404;-0.038;2023-07-16T06:34:57;7.10;;;2.25;;
46230;SDS011;31949;51.404;-0.038;2023-07-16T06:37:24;11.65;;;2.10;;
46230;SDS011;31949;51.404;-0.038;2023-07-16T06:39:52;11.50;;;2.80;;
46230;SDS011;31949;51.404;-0.038;2023-07-16T06:42:20;7.63;;;2.67;;
46230;SDS011;31949;51.404;-0.038;2023-07-16T06:44:48;8.82;;;1.90;;
46230;SDS011;31949;51.404;-0.038;2023-07-16T06:47:15;13.07;;;2.90;;
46230;SDS011;31949;51.404;-0.038;2023-07-16T06:49:43;8.30;;;2.35;;
46230;SDS011;31949;51.404;-0.038;2023-07-16T06:52:18;7.95;;;2.55;;
46230;SDS011;31949;51.404;-0.038;2023-07-16T06:54:47;12.05;;;1.98;;
46230;SDS011;31949;51.404;-0.038;2023-07-16T06:57:14;8.98;;;2.75;;
46230;SDS011;31949;51.404;-0.038;2023-07-16T06:59:41;11.02;;;2.53;;
46230;SDS011;31949;51.404;-0.038;2023-07-16T07:02:09;10.00;;;2.10;;
46230;SDS011;31949;51.404;-0.038;2023-07-16T07:04:36;10.68;;;2.72;;
46230;SDS011;31949;51.404;-0.038;2023-07-16T07:07:03;10.80;;;2.85;;
46230;SDS011;31949;51.404;-0.038;2023-07-16T07:09:31;6.72;;;1.85;;
46230;SDS011;31949;51.404;-0.038;2023-07-16T07:11:58;9.60;;;2.47;;
46230;SDS011;31949;51.404;-0.038;2023-07-16T07:14:26;11.98;;;3.63;;
46230;SDS011;31949;51.404;-0.038;2023-07-16T07:16:53;9.88;;;3.20;;
46230;SDS011;31949;51.404;-0.038;2023-07-16T07:19:20;10.52;;;2.38;;
46230;SDS011;31949;51.404;-0.038;2023-07-16T07:21:47;11.27;;;3.08;;
46230;SDS011;31949;51.404;-0.038;2023-07-16T07:24:15;7.72;;;2.63;;
46230;SDS011;31949;51.404;-0.038;2023-07-16T07:26:42;9.65;;;2.60;;
46230;SDS011;31949;51.404;-0.038;2023-07-16T07:29:09;8.20;;;2.08;;
46230;SDS011;31949;51.404;-0.038;2023-07-16T07:31:36;6.68;;;2.05;;
46230;SDS011;31949;51.404;-0.038;2023-07-16T07:34:04;9.05;;;3.13;;
46230;SDS011;31949;51.404;-0.038;2023-07-16T07:36:31;9.48;;;2.88;;
46230;SDS011;31949;51.404;-0.038;2023-07-16T07:38:58;6.30;;;2.50;;
46230;SDS011;31949;51.404;-0.038;2023-07-16T07:41:26;8.63;;;2.38;;
46230;SDS011;31949;51.404;-0.038;2023-07-16T07:43:53;9.38;;;2.45;;
46230;SDS011;31949;51.404;-0.038;2023-07-16T07:46:20;9.38;;;2.60;;
46230;SDS011;31949;51.404;-0.038;2023-07-16T07:48:47;9.00;;;2.30;;
46230;SDS011;31949;51.404;-0.038;2023-07-16T07:51:14;7.43;;;2.58;;
46230;SDS011;31949;51.404;-0.038;2023-07-16T07:53:42;11.73;;;2.90;;
46230;SDS011;31949;51.404;-0.038;2023-07-16T07:56:09;9.38;;;2.42;;
46230;SDS011;31949;51.404;-0.038;2023-07-16T07:58:36;8.18;;;2.15;;
46230;SDS011;31949;51.404;-0.038;2023-07-16T08:01:04;11.25;;;2.63;;
46230;SDS011;31949;51.404;-0.038;2023-07-16T08:03:33;10.60;;;2.90;;
46230;SDS011;31949;51.404;-0.038;2023-07-16T08:06:01;10.43;;;2.45;;
46230;SDS011;31949;51.404;-0.038;2023-07-16T08:08:28;8.93;;;2.55;;
46230;SDS011;31949;51.404;-0.038;2023-07-16T08:10:56;5.85;;;2.05;;
46230;SDS011;31949;51.404;-0.038;2023-07-16T08:13:23;7.80;;;2.35;;
46230;SDS011;31949;51.404;-0.038;2023-07-16T08:15:51;10.30;;;2.53;;
46230;SDS011;31949;51.404;-0.038;2023-07-16T08:18:18;9.10;;;2.65;;
46230;SDS011;31949;51.404;-0.038;2023-07-16T08:20:46;9.43;;;2.38;;
46230;SDS011;31949;51.404;-0.038;2023-07-16T08:23:13;11.20;;;2.30;;
46230;SDS011;31949;51.404;-0.038;2023-07-16T08:25:40;7.25;;;2.13;;
46230;SDS011;31949;51.404;-0.038;2023-07-16T08:28:09;11.45;;;2.30;;
46230;SDS011;31949;51.404;-0.038;2023-07-16T08:30:36;8.98;;;2.13;;
46230;SDS011;31949;51.404;-0.038;2023-07-16T08:33:08;10.25;;;2.28;;
46230;SDS011;31949;51.404;-0.038;2023-07-16T08:35:36;5.70;;;2.30;;
46230;SDS011;31949;51.404;-0.038;2023-07-16T08:38:03;8.73;;;2.05;;
46230;SDS011;31949;51.404;-0.038;2023-07-16T08:40:31;8.00;;;2.30;;
46230;SDS011;31949;51.404;-0.038;2023-07-16T08:42:58;9.80;;;1.88;;
46230;SDS011;31949;51.404;-0.038;2023-07-16T08:45:26;4.18;;;1.50;;
46230;SDS011;31949;51.404;-0.038;2023-07-16T08:47:56;5.50;;;2.00;;
46230;SDS011;31949;51.404;-0.038;2023-07-16T08:50:23;5.70;;;2.15;;
46230;SDS011;31949;51.404;-0.038;2023-07-16T08:52:52;5.10;;;1.40;;
46230;SDS011;31949;51.404;-0.038;2023-07-16T08:55:23;5.65;;;1.92;;
46230;SDS011;31949;51.404;-0.038;2023-07-16T08:57:54;5.40;;;1.95;;
46230;SDS011;31949;51.404;-0.038;2023-07-16T09:00:21;8.15;;;1.23;;
46230;SDS011;31949;51.404;-0.038;2023-07-16T09:02:52;6.25;;;1.90;;
46230;SDS011;31949;51.404;-0.038;2023-07-16T09:05:20;5.85;;;1.48;;
46230;SDS011;31949;51.404;-0.038;2023-07-16T09:08:04;8.55;;;2.13;;
46230;SDS011;31949;51.404;-0.038;2023-07-16T09:10:33;5.07;;;1.38;;
46230;SDS011;31949;51.404;-0.038;2023-07-16T09:13:00;4.43;;;1.60;;
46230;SDS011;31949;51.404;-0.038;2023-07-16T09:15:28;4.93;;;1.73;;
46230;SDS011;31949;51.404;-0.038;2023-07-16T09:17:57;4.35;;;1.60;;
46230;SDS011;31949;51.404;-0.038;2023-07-16T09:20:25;5.28;;;1.52;;
46230;SDS011;31949;51.404;-0.038;2023-07-16T09:22:55;5.57;;;1.52;;
46230;SDS011;31949;51.404;-0.038;2023-07-16T09:25:29;6.20;;;2.45;;
46230;SDS011;31949;51.404;-0.038;2023-07-16T09:27:58;5.60;;;1.73;;
46230;SDS011;31949;51.404;-0.038;2023-07-16T09:30:32;4.18;;;1.17;;
46230;SDS011;31949;51.404;-0.038;2023-07-16T09:35:58;4.53;;;1.42;;
46230;SDS011;31949;51.404;-0.038;2023-07-16T09:38:25;5.35;;;1.83;;
46230;SDS011;31949;51.404;-0.038;2023-07-16T09:40:55;6.03;;;1.90;;
46230;SDS011;31949;51.404;-0.038;2023-07-16T09:43:23;5.30;;;1.52;;
46230;SDS011;31949;51.404;-0.038;2023-07-16T09:45:50;6.43;;;1.77;;
46230;SDS011;31949;51.404;-0.038;2023-07-16T09:48:18;4.85;;;1.70;;
46230;SDS011;31949;51.404;-0.038;2023-07-16T09:50:50;5.05;;;1.70;;
46230;SDS011;31949;51.404;-0.038;2023-07-16T09:53:19;4.78;;;1.55;;
46230;SDS011;31949;51.404;-0.038;2023-07-16T09:55:48;5.75;;;2.13;;
46230;SDS011;31949;51.404;-0.038;2023-07-16T09:58:16;4.35;;;1.40;;
46230;SDS011;31949;51.404;-0.038;2023-07-16T10:00:46;3.70;;;1.13;;
46230;SDS011;31949;51.404;-0.038;2023-07-16T10:03:15;4.47;;;1.45;;
46230;SDS011;31949;51.404;-0.038;2023-07-16T10:05:45;8.65;;;2.70;;
46230;SDS011;31949;51.404;-0.038;2023-07-16T10:08:16;6.85;;;1.52;;
46230;SDS011;31949;51.404;-0.038;2023-07-16T10:10:48;4.30;;;1.83;;
46230;SDS011;31949;51.404;-0.038;2023-07-16T10:13:21;6.45;;;2.08;;
46230;SDS011;31949;51.404;-0.038;2023-07-16T10:15:51;4.20;;;1.30;;
46230;SDS011;31949;51.404;-0.038;2023-07-16T10:18:24;5.38;;;1.63;;
46230;SDS011;31949;51.404;-0.038;2023-07-16T10:21:04;6.30;;;1.55;;
46230;SDS011;31949;51.404;-0.038;2023-07-16T10:23:41;6.90;;;2.40;;
46230;SDS011;31949;51.404;-0.038;2023-07-16T10:26:13;6.05;;;1.77;;
46230;SDS011;31949;51.404;-0.038;2023-07-16T10:28:45;6.10;;;1.75;;
46230;SDS011;31949;51.404;-0.038;2023-07-16T10:31:22;5.18;;;1.67;;
46230;SDS011;31949;51.404;-0.038;2023-07-16T10:33:58;8.15;;;1.90;;
46230;SDS011;31949;51.404;-0.038;2023-07-16T10:36:38;7.03;;;2.72;;
46230;SDS011;31949;51.404;-0.038;2023-07-16T10:39:05;9.30;;;3.03;;
46230;SDS011;31949;51.404;-0.038;2023-07-16T10:41:33;5.63;;;2.20;;
46230;SDS011;31949;51.404;-0.038;2023-07-16T10:44:01;5.07;;;1.73;;
46230;SDS011;31949;51.404;-0.038;2023-07-16T10:46:28;4.95;;;1.67;;
46230;SDS011;31949;51.404;-0.038;2023-07-16T10:48:59;6.45;;;2.20;;
46230;SDS011;31949;51.404;-0.038;2023-07-16T10:51:26;7.25;;;1.88;;
46230;SDS011;31949;51.404;-0.038;2023-07-16T10:53:57;9.15;;;1.98;;
46230;SDS011;31949;51.404;-0.038;2023-07-16T10:56:25;7.57;;;1.90;;
46230;SDS011;31949;51.404;-0.038;2023-07-16T10:58:52;5.05;;;1.85;;
46230;SDS011;31949;51.404;-0.038;2023-07-16T11:01:20;6.38;;;1.80;;
46230;SDS011;31949;51.404;-0.038;2023-07-16T11:03:47;5.68;;;1.58;;
46230;SDS011;31949;51.404;-0.038;2023-07-16T11:06:15;7.75;;;1.95;;
46230;SDS011;31949;51.404;-0.038;2023-07-16T11:08:45;6.68;;;2.28;;
46230;SDS011;31949;51.404;-0.038;2023-07-16T11:11:12;4.97;;;1.85;;
46230;SDS011;31949;51.404;-0.038;2023-07-16T11:13:39;7.25;;;1.77;;
46230;SDS011;31949;51.404;-0.038;2023-07-16T11:16:10;4.68;;;1.40;;
46230;SDS011;31949;51.404;-0.038;2023-07-16T11:18:38;7.60;;;2.53;;
46230;SDS011;31949;51.404;-0.038;2023-07-16T11:21:05;4.50;;;1.83;;
46230;SDS011;31949;51.404;-0.038;2023-07-16T11:23:35;9.70;;;2.72;;
46230;SDS011;31949;51.404;-0.038;2023-07-16T11:26:03;7.63;;;2.60;;
46230;SDS011;31949;51.404;-0.038;2023-07-16T11:28:39;7.78;;;2.10;;
46230;SDS011;31949;51.404;-0.038;2023-07-16T11:31:11;6.50;;;2.20;;
46230;SDS011;31949;51.404;-0.038;2023-07-16T11:33:43;5.45;;;1.58;;
46230;SDS011;31949;51.404;-0.038;2023-07-16T11:36:11;8.40;;;2.22;;
46230;SDS011;31949;51.404;-0.038;2023-07-16T11:38:39;7.85;;;2.42;;
46230;SDS011;31949;51.404;-0.038;2023-07-16T11:41:07;7.22;;;1.98;;
46230;SDS011;31949;51.404;-0.038;2023-07-16T11:43:34;9.90;;;1.88;;
46230;SDS011;31949;51.404;-0.038;2023-07-16T11:46:03;7.35;;;2.20;;
46230;SDS011;31949;51.404;-0.038;2023-07-16T11:48:32;6.63;;;2.33;;
46230;SDS011;31949;51.404;-0.038;2023-07-16T11:50:59;4.60;;;1.63;;
46230;SDS011;31949;51.404;-0.038;2023-07-16T11:53:26;5.20;;;1.63;;
46230;SDS011;31949;51.404;-0.038;2023-07-16T11:55:53;7.88;;;2.30;;
46230;SDS011;31949;51.404;-0.038;2023-07-16T11:58:21;8.13;;;1.83;;
46230;SDS011;31949;51.404;-0.038;2023-07-16T12:00:48;5.18;;;1.77;;
46230;SDS011;31949;51.404;-0.038;2023-07-16T12:03:17;5.00;;;1.98;;
46230;SDS011;31949;51.404;-0.038;2023-07-16T12:05:46;4.40;;;1.95;;
46230;SDS011;31949;51.404;-0.038;2023-07-16T12:08:18;4.90;;;1.42;;
46230;SDS011;31949;51.404;-0.038;2023-07-16T12:10:46;7.90;;;2.17;;
46230;SDS011;31949;51.404;-0.038;2023-07-16T12:13:13;4.00;;;1.60;;
46230;SDS011;31949;51.404;-0.038;2023-07-16T12:15:40;9.07;;;2.72;;
46230;SDS011;31949;51.404;-0.038;2023-07-16T12:18:08;6.70;;;2.00;;
46230;SDS011;31949;51.404;-0.038;2023-07-16T12:20:35;7.72;;;2.60;;
46230;SDS011;31949;51.404;-0.038;2023-07-16T12:23:03;6.43;;;2.15;;
46230;SDS011;31949;51.404;-0.038;2023-07-16T12:25:31;7.03;;;1.90;;
46230;SDS011;31949;51.404;-0.038;2023-07-16T12:27:59;5.18;;;1.63;;
46230;SDS011;31949;51.404;-0.038;2023-07-16T12:30:28;8.02;;;2.08;;
46230;SDS011;31949;51.404;-0.038;2023-07-16T12:32:56;7.82;;;2.38;;
46230;SDS011;31949;51.404;-0.038;2023-07-16T12:35:23;6.13;;;1.55;;
46230;SDS011;31949;51.404;-0.038;2023-07-16T12:37:50;8.77;;;2.60;;
46230;SDS011;31949;51.404;-0.038;2023-07-16T12:40:20;6.05;;;1.25;;
46230;SDS011;31949;51.404;-0.038;2023-07-16T12:42:47;3.92;;;1.13;;
46230;SDS011;31949;51.404;-0.038;2023-07-16T12:45:15;6.10;;;1.33;;
46230;SDS011;31949;51.404;-0.038;2023-07-16T12:47:42;4.43;;;1.60;;
46230;SDS011;31949;51.404;-0.038;2023-07-16T12:50:09;8.05;;;1.65;;
46230;SDS011;31949;51.404;-0.038;2023-07-16T12:52:37;5.70;;;2.08;;
46230;SDS011;31949;51.404;-0.038;2023-07-16T12:55:04;4.47;;;1.40;;
46230;SDS011;31949;51.404;-0.038;2023-07-16T12:57:31;3.88;;;1.60;;
46230;SDS011;31949;51.404;-0.038;2023-07-16T12:59:59;4.18;;;1.65;;
46230;SDS011;31949;51.404;-0.038;2023-07-16T13:02:31;9.77;;;1.88;;
46230;SDS011;31949;51.404;-0.038;2023-07-16T13:04:59;7.43;;;1.70;;
46230;SDS011;31949;51.404;-0.038;2023-07-16T13:07:26;8.75;;;1.98;;
46230;SDS011;31949;51.404;-0.038;2023-07-16T13:09:54;7.15;;;2.92;;
46230;SDS011;31949;51.404;-0.038;2023-07-16T13:12:38;4.93;;;1.70;;
46230;SDS011;31949;51.404;-0.038;2023-07-16T13:15:08;4.78;;;1.75;;
46230;SDS011;31949;51.404;-0.038;2023-07-16T13:17:36;3.97;;;1.70;;
46230;SDS011;31949;51.404;-0.038;2023-07-16T13:20:04;5.03;;;1.60;;
46230;SDS011;31949;51.404;-0.038;2023-07-16T13:22:32;4.68;;;1.83;;
46230;SDS011;31949;51.404;-0.038;2023-07-16T13:25:00;6.35;;;1.90;;
46230;SDS011;31949;51.404;-0.038;2023-07-16T13:27:31;6.15;;;2.08;;
46230;SDS011;31949;51.404;-0.038;2023-07-16T13:29:58;7.82;;;2.38;;
46230;SDS011;31949;51.404;-0.038;2023-07-16T13:32:26;7.18;;;2.20;;
46230;SDS011;31949;51.404;-0.038;2023-07-16T13:34:53;6.82;;;2.47;;
46230;SDS011;31949;51.404;-0.038;2023-07-16T13:37:21;7.10;;;2.45;;
46230;SDS011;31949;51.404;-0.038;2023-07-16T13:39:48;5.57;;;1.77;;
46230;SDS011;31949;51.404;-0.038;2023-07-16T13:42:16;7.35;;;1.88;;
46230;SDS011;31949;51.404;-0.038;2023-07-16T13:44:52;6.82;;;1.90;;
46230;SDS011;31949;51.404;-0.038;2023-07-16T13:47:21;9.40;;;2.65;;
46230;SDS011;31949;51.404;-0.038;2023-07-16T13:49:50;5.72;;;2.08;;
46230;SDS011;31949;51.404;-0.038;2023-07-16T13:52:17;6.40;;;1.70;;
46230;SDS011;31949;51.404;-0.038;2023-07-16T13:54:45;6.32;;;2.00;;
46230;SDS011;31949;51.404;-0.038;2023-07-16T13:57:12;6.20;;;2.25;;
46230;SDS011;31949;51.404;-0.038;2023-07-16T13:59:41;5.95;;;1.83;;
46230;SDS011;31949;51.404;-0.038;2023-07-16T14:02:09;8.05;;;2.22;;
46230;SDS011;31949;51.404;-0.038;2023-07-16T14:04:36;5.18;;;1.77;;
46230;SDS011;31949;51.404;-0.038;2023-07-16T14:07:04;5.10;;;1.50;;
46230;SDS011;31949;51.404;-0.038;2023-07-16T14:09:31;6.65;;;1.63;;
46230;SDS011;31949;51.404;-0.038;2023-07-16T14:11:59;5.88;;;1.80;;
46230;SDS011;31949;51.404;-0.038;2023-07-16T14:14:26;3.67;;;1.23;;
46230;SDS011;31949;51.404;-0.038;2023-07-16T14:16:53;2.92;;;1.33;;
46230;SDS011;31949;51.404;-0.038;2023-07-16T14:19:22;4.10;;;2.03;;
46230;SDS011;31949;51.404;-0.038;2023-07-16T14:21:49;5.43;;;1.90;;
46230;SDS011;31949;51.404;-0.038;2023-07-16T14:24:17;6.18;;;1.92;;
46230;SDS011;31949;51.404;-0.038;2023-07-16T14:26:44;4.22;;;1.60;;
46230;SDS011;31949;51.404;-0.038;2023-07-16T14:29:11;4.45;;;1.60;;
46230;SDS011;31949;51.404;-0.038;2023-07-16T14:31:39;4.00;;;1.50;;
46230;SDS011;31949;51.404;-0.038;2023-07-16T14:34:06;4.18;;;1.45;;
46230;SDS011;31949;51.404;-0.038;2023-07-16T14:36:33;3.42;;;1.30;;
46230;SDS011;31949;51.404;-0.038;2023-07-16T14:39:01;4.70;;;1.45;;
46230;SDS011;31949;51.404;-0.038;2023-07-16T14:41:28;7.32;;;1.85;;
46230;SDS011;31949;51.404;-0.038;2023-07-16T14:43:55;3.72;;;1.80;;
46230;SDS011;31949;51.404;-0.038;2023-07-16T14:46:23;4.68;;;1.88;;
46230;SDS011;31949;51.404;-0.038;2023-07-16T14:48:52;5.07;;;2.28;;
46230;SDS011;31949;51.404;-0.038;2023-07-16T14:51:22;7.43;;;2.15;;